Terminal Aerodrome Forecast
Issued by NWS North Platte, NE

Home | Current Version | Previous Version | Text Only | Print | Product List | Glossary Off
Versions: 1 2 3 4 5 6 7 8 9 10 11 12 13 14 15

956
FTUS43 KLBF 101124
TAFVTN
TAF
KVTN 101124Z 1012/1112 29012KT P6SM FEW250 WS020/32045KT
     FM101400 29011KT P6SM FEW250
     FM110100 27007KT P6SM FEW250
     FM110700 28011G17KT P6SM FEW250 WS020/32045KT=

USA.gov is the U.S. government's official web portal to all federal, state and local government web resources and services.